Terminal Aerodrome Forecast
Issued by NWS Brownsville, TX

Home | Current Version | Previous Version | Text Only | Print | Product List | Glossary On
Versions: 1 2 3 4 5 6 7 8 9 10 11 12
557
FTUS44 KBRO 221720
TAFBRO
TAF
KBRO 221720Z 2218/2318 16016G24KT P6SM SCT035 SCT040
     FM230000 14013KT P6SM FEW035
     FM230200 14008KT P6SM FEW025
     FM231200 14008KT P6SM SKC
     FM231500 16019KT P6SM FEW250=

USA.gov is the U.S. government's official web portal to all federal, state and local government web resources and services.